createdAt,value
2023-04-11T00:01:51.170Z,100323.88
2023-04-11T00:04:20.617Z,100317.75
2023-04-11T00:06:48.411Z,100298.31
2023-04-11T00:09:16.608Z,100290.34
2023-04-11T00:11:43.544Z,100289.59
2023-04-11T00:14:12.438Z,100287.91
2023-04-11T00:16:39.566Z,100295.16
2023-04-11T00:19:07.666Z,100295.22
2023-04-11T00:21:35.723Z,100259.78
2023-04-11T00:24:02.517Z,100210.09
2023-04-11T00:26:29.282Z,100164.88
2023-04-11T00:28:56.324Z,100128.56
2023-04-11T00:31:23.280Z,100145.59
2023-04-11T00:33:50.147Z,100175.00
2023-04-11T00:36:17.267Z,100130.59
2023-04-11T00:38:44.669Z,100090.69
2023-04-11T00:41:11.603Z,100161.81
2023-04-11T00:43:38.393Z,100190.34
2023-04-11T00:46:06.258Z,100185.91
2023-04-11T00:48:33.220Z,100216.16
2023-04-11T00:51:00.270Z,100209.09
2023-04-11T00:53:32.381Z,100217.09
2023-04-11T00:56:00.505Z,100238.41
2023-04-11T00:58:28.014Z,100257.09
2023-04-11T01:00:55.090Z,100242.00
2023-04-11T01:03:22.842Z,100251.78
2023-04-11T01:05:52.362Z,100245.63
2023-04-11T01:08:21.247Z,100247.44
2023-04-11T01:10:48.414Z,100246.53
2023-04-11T01:13:15.424Z,100259.91
2023-04-11T01:15:42.255Z,100267.97
2023-04-11T01:18:09.475Z,100270.63
2023-04-11T01:20:38.482Z,100265.31
2023-04-11T01:23:06.369Z,100266.22
2023-04-11T01:25:33.188Z,100265.44
2023-04-11T01:28:00.062Z,100270.75
2023-04-11T01:30:26.858Z,100261.00
2023-04-11T01:32:53.673Z,100257.50
2023-04-11T01:35:20.665Z,100255.75
2023-04-11T01:37:47.547Z,100248.66
2023-04-11T01:40:18.177Z,100239.84
2023-04-11T01:42:46.144Z,100244.28
2023-04-11T01:45:13.347Z,100243.41
2023-04-11T01:47:40.539Z,100243.47
2023-04-11T01:50:08.973Z,100241.75
2023-04-11T01:52:35.863Z,100228.44
2023-04-11T01:55:02.712Z,100231.13
2023-04-11T01:57:29.532Z,100233.84
2023-04-11T01:59:56.288Z,100228.53
2023-04-11T02:02:23.320Z,100233.03
2023-04-11T02:04:51.274Z,100232.19
2023-04-11T02:07:18.067Z,100216.28
2023-04-11T02:09:44.897Z,100217.28
2023-04-11T02:12:14.900Z,100209.31
2023-04-11T02:14:44.484Z,100201.41
2023-04-11T02:17:14.393Z,100194.34
2023-04-11T02:19:41.513Z,100190.84
2023-04-11T02:22:11.494Z,100186.47
2023-04-11T02:24:38.909Z,100180.41
2023-04-11T02:27:06.090Z,100179.56
2023-04-11T02:29:33.288Z,100164.53
2023-04-11T02:32:00.345Z,100162.84
2023-04-11T02:34:27.493Z,100162.06
2023-04-11T02:36:54.400Z,100166.56
2023-04-11T02:39:24.188Z,100163.06
2023-04-11T02:41:51.288Z,100156.88
2023-04-11T02:44:19.231Z,100155.19
2023-04-11T02:46:46.033Z,100149.06
2023-04-11T02:49:20.356Z,100149.09
2023-04-11T02:51:50.334Z,100160.81
2023-04-11T02:54:24.587Z,100163.47
2023-04-11T02:56:52.668Z,100160.84
2023-04-11T02:59:19.815Z,100165.34
2023-04-11T03:01:46.704Z,100152.94
2023-04-11T03:04:16.100Z,100142.31
2023-04-11T03:06:46.051Z,100139.69
2023-04-11T03:09:12.823Z,100129.09
2023-04-11T03:11:39.638Z,100136.25
2023-04-11T03:14:06.409Z,100148.72
2023-04-11T03:16:33.244Z,100148.75
2023-04-11T03:19:00.445Z,100149.66
2023-04-11T03:21:27.443Z,100145.25
2023-04-11T03:23:54.505Z,100163.03
2023-04-11T03:26:21.735Z,100157.75
2023-04-11T03:28:48.529Z,100168.38
2023-04-11T03:31:15.374Z,100168.38
2023-04-11T03:33:42.181Z,100167.50
2023-04-11T03:36:09.243Z,100187.00
2023-04-11T03:38:36.098Z,100246.44
2023-04-11T03:41:03.081Z,100241.31
2023-04-11T03:43:29.989Z,100237.22
2023-04-11T03:45:56.879Z,100237.53
2023-04-11T03:48:26.418Z,100236.88
2023-04-11T03:50:53.264Z,100225.63
2023-04-11T03:53:20.342Z,100224.91
2023-04-11T03:55:48.939Z,100223.28
2023-04-11T03:58:15.995Z,100218.94
2023-04-11T04:00:42.781Z,100218.13
2023-04-11T04:03:09.780Z,100216.41
2023-04-11T04:05:36.704Z,100220.91
2023-04-11T04:08:03.776Z,100220.94
2023-04-11T04:10:30.554Z,100219.22
2023-04-11T04:12:57.343Z,100203.34
2023-04-11T04:15:24.321Z,100204.28
2023-04-11T04:17:51.713Z,100217.56
2023-04-11T04:20:18.569Z,100218.53
2023-04-11T04:22:47.362Z,100217.66
2023-04-11T04:25:19.893Z,100218.59
2023-04-11T04:27:47.379Z,100217.78
2023-04-11T04:30:19.061Z,100216.97
2023-04-11T04:32:46.297Z,100216.13
2023-04-11T04:35:23.819Z,100225.00
2023-04-11T04:37:50.821Z,100216.19
2023-04-11T04:40:20.502Z,100216.19
2023-04-11T04:42:49.925Z,100205.56
2023-04-11T04:45:16.704Z,100210.88
2023-04-11T04:47:43.583Z,100204.69
2023-04-11T04:50:10.769Z,100211.72
2023-04-11T04:52:37.548Z,100209.13
2023-04-11T04:55:04.746Z,100209.13
2023-04-11T04:57:34.076Z,100210.84
2023-04-11T05:00:01.042Z,100212.59
2023-04-11T05:02:28.081Z,100205.47
2023-04-11T05:04:55.174Z,100209.88
2023-04-11T05:07:22.488Z,100210.72
2023-04-11T05:09:49.308Z,100206.28
2023-04-11T05:12:17.049Z,100210.69
2023-04-11T05:14:43.843Z,100213.28
2023-04-11T05:17:10.603Z,100213.31
2023-04-11T05:19:37.410Z,100212.47
2023-04-11T05:22:04.148Z,100219.50
2023-04-11T05:24:31.205Z,100216.84
2023-04-11T05:26:58.182Z,100219.47
2023-04-11T05:29:25.026Z,100220.31
2023-04-11T05:31:51.824Z,100226.50
2023-04-11T05:34:18.629Z,100247.69
2023-04-11T05:36:47.106Z,100248.56
2023-04-11T05:39:15.013Z,100253.03
2023-04-11T05:41:41.946Z,100254.88
2023-04-11T05:44:08.821Z,100242.56
2023-04-11T05:46:36.879Z,100248.81
2023-04-11T05:49:03.840Z,100242.63
2023-04-11T05:51:30.764Z,100247.94
2023-04-11T05:53:57.788Z,100248.00
2023-04-11T05:56:24.935Z,100237.38
2023-04-11T05:58:54.831Z,100248.88
2023-04-11T06:01:22.140Z,100249.75
2023-04-11T06:03:55.608Z,100247.94
2023-04-11T06:06:23.527Z,100253.19
2023-04-11T06:08:51.209Z,100248.78
2023-04-11T06:11:23.029Z,100247.88
2023-04-11T06:13:49.845Z,100253.19
2023-04-11T06:16:16.669Z,100247.94
2023-04-11T06:18:43.602Z,100242.63
2023-04-11T06:21:10.397Z,100255.06
2023-04-11T06:23:37.193Z,100249.75
2023-04-11T06:26:04.051Z,100256.78
2023-04-11T06:28:30.972Z,100269.16
2023-04-11T06:30:57.725Z,100279.75
2023-04-11T06:33:25.424Z,100293.03
2023-04-11T06:35:52.336Z,100283.34
2023-04-11T06:38:19.136Z,100293.97
2023-04-11T06:40:45.880Z,100298.38
2023-04-11T06:43:13.427Z,100284.25
2023-04-11T06:45:40.245Z,100275.44
2023-04-11T06:48:07.072Z,100280.78
2023-04-11T06:50:37.712Z,100280.81
2023-04-11T06:53:04.489Z,100284.38
2023-04-11T06:55:34.372Z,100282.63
2023-04-11T06:58:01.293Z,100283.56
2023-04-11T07:00:36.998Z,100285.31
2023-04-11T07:03:08.720Z,100288.00
2023-04-11T07:05:38.289Z,100290.66
2023-04-11T07:08:06.304Z,100293.34
2023-04-11T07:10:33.077Z,100296.88
2023-04-11T07:12:59.825Z,100301.34
2023-04-11T07:15:27.828Z,100300.47
2023-04-11T07:17:54.701Z,100307.56
2023-04-11T07:20:21.698Z,100306.69
2023-04-11T07:22:48.472Z,100316.41
2023-04-11T07:25:15.376Z,100316.41
2023-04-11T07:27:43.569Z,100316.41
2023-04-11T07:30:10.855Z,100318.06
2023-04-11T07:32:37.653Z,100315.38
2023-04-11T07:35:04.849Z,100317.97
2023-04-11T07:37:32.500Z,100309.94
2023-04-11T07:39:59.299Z,100316.97
2023-04-11T07:42:26.120Z,100321.34
2023-04-11T07:44:52.895Z,100323.03
2023-04-11T07:47:19.866Z,100315.94
2023-04-11T07:49:46.685Z,100322.97
2023-04-11T07:52:14.416Z,100330.88
2023-04-11T07:54:41.437Z,100325.50
2023-04-11T07:57:08.200Z,100341.41
2023-04-11T07:59:35.047Z,100345.81
2023-04-11T08:02:02.911Z,100338.69
2023-04-11T08:04:35.725Z,100346.59
2023-04-11T08:07:03.416Z,100336.78
2023-04-11T08:09:30.434Z,100344.69
2023-04-11T08:11:57.416Z,100350.81
2023-04-11T08:14:24.281Z,100349.00
2023-04-11T08:16:53.025Z,100362.22
2023-04-11T08:19:21.020Z,100356.84
2023-04-11T08:21:47.829Z,100349.75
2023-04-11T08:24:14.591Z,100343.47
2023-04-11T08:26:44.591Z,100355.88
2023-04-11T08:29:12.478Z,100353.22
2023-04-11T08:31:44.400Z,100360.34
2023-04-11T08:34:12.387Z,100346.25
2023-04-11T08:36:39.203Z,100358.66
2023-04-11T08:39:06.567Z,100351.59
2023-04-11T08:41:35.795Z,100354.16
2023-04-11T08:44:02.761Z,100361.03
2023-04-11T08:46:32.767Z,100358.22
2023-04-11T08:49:00.924Z,100365.09
2023-04-11T08:51:27.836Z,100366.78
2023-04-11T08:53:57.821Z,100365.75
2023-04-11T08:56:24.925Z,100354.13
2023-04-11T08:58:51.677Z,100354.06
2023-04-11T09:01:33.377Z,100371.75
2023-04-11T09:04:05.425Z,100371.81
2023-04-11T09:06:33.719Z,100385.19
2023-04-11T09:09:07.952Z,100378.97
2023-04-11T09:11:54.898Z,100393.16
2023-04-11T09:14:26.706Z,100385.16
2023-04-11T09:16:58.535Z,100377.13
2023-04-11T09:19:31.452Z,100385.06
2023-04-11T09:22:01.297Z,100384.22
2023-04-11T09:24:34.013Z,100387.69
2023-04-11T09:27:16.721Z,100387.69
2023-04-11T09:29:48.436Z,100384.97
2023-04-11T09:32:36.589Z,100372.47
2023-04-11T09:35:24.906Z,100380.44
2023-04-11T09:37:55.338Z,100382.22
2023-04-11T09:40:27.695Z,100384.78
2023-04-11T09:43:02.281Z,100392.47
2023-04-11T09:45:35.848Z,100387.78
2023-04-11T09:48:08.986Z,100396.47
2023-04-11T09:50:37.562Z,100403.44
2023-04-11T09:53:06.714Z,100435.53
2023-04-11T09:55:33.537Z,100435.28
2023-04-11T09:58:00.766Z,100439.47
2023-04-11T10:00:32.442Z,100426.66
2023-04-11T10:02:59.475Z,100418.13
2023-04-11T10:05:29.024Z,100420.13
2023-04-11T10:08:08.694Z,100414.88
2023-04-11T10:10:36.728Z,100418.41
2023-04-11T10:13:42.543Z,100413.00
2023-04-11T10:16:21.560Z,100420.81
2023-04-11T10:18:54.216Z,100417.22
2023-04-11T10:21:30.356Z,100420.69
2023-04-11T10:24:23.218Z,100421.53
2023-04-11T10:27:00.012Z,100420.53
2023-04-11T10:29:32.244Z,100415.09
2023-04-11T10:32:17.232Z,100414.06
2023-04-11T10:34:50.454Z,100415.69
2023-04-11T10:37:34.112Z,100423.53
2023-04-11T10:40:01.256Z,100422.56
2023-04-11T10:42:47.395Z,100425.97
2023-04-11T10:45:28.881Z,100428.47
2023-04-11T10:48:12.957Z,100424.06
2023-04-11T10:50:44.696Z,100427.75
2023-04-11T10:53:38.878Z,100423.31
2023-04-11T10:56:06.060Z,100414.56
2023-04-11T10:58:39.636Z,100421.63
2023-04-11T11:01:25.765Z,100413.63
2023-04-11T11:04:00.108Z,100400.25
2023-04-11T11:06:29.002Z,100411.66
2023-04-11T11:08:55.959Z,100403.50
2023-04-11T11:11:22.789Z,100404.25
2023-04-11T11:13:52.207Z,100401.44
2023-04-11T11:16:24.984Z,100410.13
2023-04-11T11:18:58.862Z,100411.72
2023-04-11T11:21:28.684Z,100425.69
2023-04-11T11:24:00.504Z,100441.50
2023-04-11T11:26:38.577Z,100427.16
2023-04-11T11:29:05.768Z,100432.47
2023-04-11T11:31:37.526Z,100435.00
2023-04-11T11:34:22.262Z,100433.91
2023-04-11T11:36:51.108Z,100426.50
2023-04-11T11:39:18.736Z,100441.44
2023-04-11T11:41:46.412Z,100432.47
2023-04-11T11:44:27.719Z,100438.66
2023-04-11T11:47:12.814Z,100437.78
2023-04-11T11:49:54.719Z,100444.88
2023-04-11T11:52:42.407Z,100437.66
2023-04-11T11:55:32.073Z,100439.47
2023-04-11T11:58:02.082Z,100433.22
2023-04-11T12:00:31.702Z,100437.50
2023-04-11T12:02:59.942Z,100448.81
2023-04-11T12:05:30.310Z,100443.16
2023-04-11T12:08:00.361Z,100448.16
2023-04-11T12:10:43.451Z,100458.63
2023-04-11T12:13:23.603Z,100460.22
2023-04-11T12:15:53.353Z,100460.13
2023-04-11T12:18:22.368Z,100469.00
2023-04-11T12:20:50.136Z,100469.03
2023-04-11T12:23:18.013Z,100461.13
2023-04-11T12:25:44.885Z,100471.00
2023-04-11T12:28:12.630Z,100479.81
2023-04-11T12:30:39.770Z,100471.78
2023-04-11T12:33:06.569Z,100485.19
2023-04-11T12:35:33.632Z,100481.66
2023-04-11T12:38:00.588Z,100484.25
2023-04-11T12:40:29.315Z,100481.47
2023-04-11T12:42:57.378Z,100483.25
2023-04-11T12:45:25.787Z,100480.56
2023-04-11T12:47:53.202Z,100479.59
2023-04-11T12:50:22.811Z,100490.13
2023-04-11T12:52:49.605Z,100504.25
2023-04-11T12:55:16.688Z,100535.38
2023-04-11T12:57:43.769Z,100525.72
2023-04-11T13:00:12.760Z,100552.91
2023-04-11T13:02:44.155Z,100542.81
2023-04-11T13:05:16.295Z,100545.91
2023-04-11T13:07:44.649Z,100543.53
2023-04-11T13:10:13.491Z,100547.16
2023-04-11T13:12:41.638Z,100550.69
2023-04-11T13:15:09.729Z,100556.03
2023-04-11T13:17:36.928Z,100550.88
2023-04-11T13:20:07.884Z,100549.28
2023-04-11T13:22:34.722Z,100546.59
2023-04-11T13:25:01.515Z,100537.56
2023-04-11T13:27:28.463Z,100537.44
2023-04-11T13:29:55.204Z,100542.53
2023-04-11T13:32:22.020Z,100543.97
2023-04-11T13:34:48.926Z,100543.59
2023-04-11T13:37:15.819Z,100550.31
2023-04-11T13:39:42.948Z,100554.50
2023-04-11T13:42:11.510Z,100564.22
2023-04-11T13:44:38.305Z,100576.69
2023-04-11T13:47:05.298Z,100583.94
2023-04-11T13:49:32.104Z,100589.41
2023-04-11T13:51:58.868Z,100590.41
2023-04-11T13:54:26.142Z,100597.53
2023-04-11T13:56:52.932Z,100593.00
2023-04-11T13:59:19.826Z,100591.03
2023-04-11T14:01:46.760Z,100590.78
2023-04-11T14:04:13.742Z,100582.63
2023-04-11T14:06:40.884Z,100575.25
2023-04-11T14:09:07.696Z,100574.06
2023-04-11T14:11:34.488Z,100572.94
2023-04-11T14:14:01.469Z,100584.38
2023-04-11T14:16:28.361Z,100585.97
2023-04-11T14:18:55.230Z,100593.09
2023-04-11T14:21:22.744Z,100591.41
2023-04-11T14:23:49.560Z,100600.41
2023-04-11T14:26:16.944Z,100595.16
2023-04-11T14:28:43.806Z,100605.06
2023-04-11T14:31:10.836Z,100606.06
2023-04-11T14:33:37.729Z,100655.31
2023-04-11T14:36:04.646Z,100671.75
2023-04-11T14:38:31.435Z,100655.50
2023-04-11T14:40:58.306Z,100646.34
2023-04-11T14:43:25.079Z,100639.84
2023-04-11T14:45:57.229Z,100626.16
2023-04-11T14:48:27.070Z,100615.91
2023-04-11T14:50:55.243Z,100603.00
2023-04-11T14:53:22.887Z,100616.50
2023-04-11T14:55:49.693Z,100628.19
2023-04-11T14:58:16.935Z,100618.50
2023-04-11T15:00:44.671Z,100603.47
2023-04-11T15:03:12.313Z,100620.25
2023-04-11T15:05:39.375Z,100617.53
2023-04-11T15:08:06.286Z,100617.44
2023-04-11T15:10:33.154Z,100633.28
2023-04-11T15:12:59.923Z,100645.50
2023-04-11T15:15:26.693Z,100638.22
2023-04-11T15:18:21.460Z,100648.63
2023-04-11T15:20:48.776Z,100645.81
2023-04-11T15:23:15.729Z,100640.34
2023-04-11T15:25:42.527Z,100651.78
2023-04-11T15:28:09.594Z,100645.44
2023-04-11T15:30:50.855Z,100638.38
2023-04-11T15:33:19.567Z,100650.81
2023-04-11T15:35:46.609Z,100638.38
2023-04-11T15:38:14.507Z,100647.13
2023-04-11T15:40:41.412Z,100643.56
2023-04-11T15:43:11.502Z,100640.84
2023-04-11T15:45:39.737Z,100643.50
2023-04-11T15:48:06.873Z,100631.97
2023-04-11T15:50:36.756Z,100639.97
2023-04-11T15:53:03.545Z,100636.47
2023-04-11T15:55:30.586Z,100634.69
2023-04-11T15:57:57.436Z,100647.91
2023-04-11T16:00:25.084Z,100640.69
2023-04-11T16:02:52.187Z,100638.03
2023-04-11T16:05:22.014Z,100642.38
2023-04-11T16:07:50.203Z,100633.47
2023-04-11T16:10:16.966Z,100636.91
2023-04-11T16:12:43.822Z,100638.59
2023-04-11T16:15:10.781Z,100641.16
2023-04-11T16:17:37.670Z,100634.78
2023-04-11T16:20:08.822Z,100636.38
2023-04-11T16:22:37.481Z,100638.00
2023-04-11T16:25:06.823Z,100636.06
2023-04-11T16:27:33.703Z,100631.56
2023-04-11T16:30:03.049Z,100635.09
2023-04-11T16:32:30.044Z,100635.16
2023-04-11T16:34:57.871Z,100634.34
2023-04-11T16:37:24.930Z,100637.09
2023-04-11T16:39:51.778Z,100644.25
2023-04-11T16:42:19.350Z,100632.81
2023-04-11T16:44:46.445Z,100629.34
2023-04-11T16:47:13.329Z,100631.25
2023-04-11T16:49:40.320Z,100633.16
2023-04-11T16:52:07.131Z,100635.91
2023-04-11T16:54:33.872Z,100638.66
2023-04-11T16:57:01.633Z,100641.41
2023-04-11T16:59:28.497Z,100647.72
2023-04-11T17:01:55.491Z,100646.00
2023-04-11T17:04:22.549Z,100640.75
2023-04-11T17:06:49.424Z,100647.06
2023-04-11T17:09:16.244Z,100641.81
2023-04-11T17:11:43.025Z,100640.09
2023-04-11T17:14:09.775Z,100647.28
2023-04-11T17:16:36.649Z,100647.41
2023-04-11T17:19:03.784Z,100658.09
2023-04-11T17:21:31.835Z,100657.34
2023-04-11T17:23:58.959Z,100648.53
2023-04-11T17:26:25.920Z,100654.81
2023-04-11T17:28:52.838Z,100654.91
2023-04-11T17:31:21.586Z,100663.84
2023-04-11T17:33:48.838Z,100660.41
2023-04-11T17:36:15.700Z,100654.25
2023-04-11T17:38:43.271Z,100653.44
2023-04-11T17:41:14.845Z,100663.25
2023-04-11T17:43:43.666Z,100663.38
2023-04-11T17:46:10.710Z,100666.09
2023-04-11T17:48:37.733Z,100666.16
2023-04-11T17:51:07.761Z,100675.06
2023-04-11T17:53:37.012Z,100677.78
2023-04-11T17:56:06.157Z,100676.97
2023-04-11T17:58:33.581Z,100677.94
2023-04-11T18:01:00.389Z,100682.44
2023-04-11T18:03:27.439Z,100682.50
2023-04-11T18:05:54.852Z,100689.66
2023-04-11T18:08:28.747Z,100688.81
2023-04-11T18:11:00.409Z,100688.00
2023-04-11T18:13:30.205Z,100695.13
2023-04-11T18:15:57.013Z,100692.56
2023-04-11T18:18:27.278Z,100697.91
2023-04-11T18:20:54.063Z,100700.66
2023-04-11T18:23:20.825Z,100704.28
2023-04-11T18:25:47.970Z,100707.84
2023-04-11T18:28:14.782Z,100707.03
2023-04-11T18:30:41.561Z,100705.31
2023-04-11T18:33:09.424Z,100708.00
2023-04-11T18:35:36.671Z,100712.44
2023-04-11T18:38:06.149Z,100707.16
2023-04-11T18:40:33.478Z,100701.03
2023-04-11T18:43:00.818Z,100712.56
2023-04-11T18:45:27.656Z,100706.41
2023-04-11T18:47:54.580Z,100720.59
2023-04-11T18:50:22.498Z,100710.00
2023-04-11T18:52:52.998Z,100708.28
2023-04-11T18:55:20.876Z,100707.44
2023-04-11T18:57:48.853Z,100708.38
2023-04-11T19:00:19.259Z,100715.44
2023-04-11T19:02:50.205Z,100712.78
2023-04-11T19:05:17.949Z,100706.63
2023-04-11T19:07:45.723Z,100703.09
2023-04-11T19:10:12.957Z,100705.78
2023-04-11T19:12:40.966Z,100695.19
2023-04-11T19:15:09.134Z,100697.00
2023-04-11T19:17:38.248Z,100703.19
2023-04-11T19:20:16.499Z,100697.88
2023-04-11T19:22:43.528Z,100705.00
2023-04-11T19:25:11.882Z,100704.09
2023-04-11T19:27:41.455Z,100706.78
2023-04-11T19:30:10.129Z,100705.91
2023-04-11T19:32:40.622Z,100705.06
2023-04-11T19:35:10.478Z,100711.25
2023-04-11T19:37:37.614Z,100713.91
2023-04-11T19:40:08.007Z,100710.38
2023-04-11T19:42:39.723Z,100704.19
2023-04-11T19:45:08.699Z,100705.09
2023-04-11T19:47:35.593Z,100715.69
2023-04-11T19:50:02.721Z,100713.03
2023-04-11T19:52:29.500Z,100721.88
2023-04-11T19:54:56.993Z,100718.31
2023-04-11T19:57:26.615Z,100720.09
2023-04-11T19:59:53.404Z,100709.50
2023-04-11T20:02:21.191Z,100714.81
2023-04-11T20:04:48.179Z,100702.47
2023-04-11T20:07:15.502Z,100702.47
2023-04-11T20:09:42.297Z,100697.16
2023-04-11T20:12:09.065Z,100696.28
2023-04-11T20:14:37.207Z,100694.53
2023-04-11T20:17:05.531Z,100686.53
2023-04-11T20:19:33.107Z,100685.63
2023-04-11T20:22:00.986Z,100691.84
2023-04-11T20:24:27.837Z,100687.41
2023-04-11T20:26:56.806Z,100690.91
2023-04-11T20:29:32.394Z,100674.16
2023-04-11T20:31:59.237Z,100677.69
2023-04-11T20:34:26.035Z,100678.56
2023-04-11T20:36:52.785Z,100670.63
2023-04-11T20:39:19.657Z,100660.94
2023-04-11T20:41:46.406Z,100667.09
2023-04-11T20:44:17.859Z,100668.84
2023-04-11T20:46:45.128Z,100668.88
2023-04-11T20:49:11.933Z,100664.44
2023-04-11T20:51:38.727Z,100669.72
2023-04-11T20:54:05.713Z,100660.91
2023-04-11T20:56:35.278Z,100660.88
2023-04-11T20:59:02.803Z,100661.75
2023-04-11T21:01:33.577Z,100663.53
2023-04-11T21:04:04.033Z,100659.13
2023-04-11T21:06:31.987Z,100658.22
2023-04-11T21:09:00.302Z,100657.34
2023-04-11T21:11:27.092Z,100657.31
2023-04-11T21:13:54.528Z,100653.81
2023-04-11T21:16:21.920Z,100649.38
2023-04-11T21:18:48.982Z,100650.25
2023-04-11T21:21:18.788Z,100647.59
2023-04-11T21:23:45.628Z,100653.78
2023-04-11T21:26:12.373Z,100659.03
2023-04-11T21:28:39.217Z,100646.69
2023-04-11T21:31:06.424Z,100648.47
2023-04-11T21:33:33.233Z,100648.44
2023-04-11T21:36:00.091Z,100642.28
2023-04-11T21:38:26.893Z,100649.28
2023-04-11T21:40:53.642Z,100644.88
2023-04-11T21:43:20.419Z,100644.88
2023-04-11T21:45:47.170Z,100647.53
2023-04-11T21:48:14.936Z,100652.78
2023-04-11T21:50:41.763Z,100644.84
2023-04-11T21:53:08.538Z,100642.16
2023-04-11T21:55:35.424Z,100637.75
2023-04-11T21:58:02.229Z,100628.94
2023-04-11T22:00:28.989Z,100628.03
2023-04-11T22:02:56.015Z,100630.63
2023-04-11T22:05:23.365Z,100631.53
2023-04-11T22:07:50.697Z,100625.34
2023-04-11T22:10:22.672Z,100614.78
2023-04-11T22:12:50.523Z,100620.03
2023-04-11T22:15:18.359Z,100620.91
2023-04-11T22:17:50.210Z,100609.44
2023-04-11T22:20:18.015Z,100611.16
2023-04-11T22:22:45.020Z,100617.31
2023-04-11T22:25:11.946Z,100608.47
2023-04-11T22:27:39.010Z,100604.03
2023-04-11T22:30:07.760Z,100607.56
2023-04-11T22:32:34.738Z,100598.75
2023-04-11T22:35:01.668Z,100590.81
2023-04-11T22:37:28.499Z,100590.78
2023-04-11T22:39:55.614Z,100595.16
2023-04-11T22:42:22.364Z,100588.97
2023-04-11T22:44:49.151Z,100591.59
2023-04-11T22:47:16.626Z,100586.31
2023-04-11T22:49:44.610Z,100586.28
2023-04-11T22:52:15.479Z,100590.66
2023-04-11T22:54:43.520Z,100582.75
2023-04-11T22:57:10.450Z,100586.25
2023-04-11T22:59:37.248Z,100579.19
2023-04-11T23:02:04.174Z,100575.63
2023-04-11T23:04:32.156Z,100575.66
2023-04-11T23:06:59.289Z,100571.22
2023-04-11T23:09:27.965Z,100565.06
2023-04-11T23:11:54.711Z,100556.22
2023-04-11T23:14:22.079Z,100548.28
2023-04-11T23:16:48.914Z,100553.56
2023-04-11T23:19:17.090Z,100556.22
2023-04-11T23:21:44.638Z,100551.81
2023-04-11T23:24:11.424Z,100558.84
2023-04-11T23:26:38.221Z,100555.31
2023-04-11T23:29:04.986Z,100546.50
2023-04-11T23:31:32.533Z,100537.75
2023-04-11T23:34:00.610Z,100522.78
2023-04-11T23:36:30.605Z,100521.00
2023-04-11T23:38:58.207Z,100526.28
2023-04-11T23:41:25.084Z,100524.50
2023-04-11T23:43:51.872Z,100523.66
2023-04-11T23:46:18.704Z,100522.78
2023-04-11T23:48:47.073Z,100520.13
2023-04-11T23:51:14.603Z,100512.22
2023-04-11T23:53:42.680Z,100513.09
2023-04-11T23:56:09.766Z,100504.31
2023-04-11T23:58:36.700Z,100496.41
